createdAt,value
2018-10-18T00:00:12.388Z,0
2018-10-18T00:01:22.685Z,0
2018-10-18T00:02:32.763Z,0
2018-10-18T00:03:42.335Z,0
2018-10-18T00:04:52.421Z,0
2018-10-18T00:06:03.643Z,0
2018-10-18T00:07:14.224Z,0
2018-10-18T00:08:24.653Z,0
2018-10-18T00:09:34.743Z,0
2018-10-18T00:10:45.077Z,0
2018-10-18T00:11:55.551Z,0
2018-10-18T00:13:05.721Z,0
2018-10-18T00:14:16.676Z,0
2018-10-18T00:15:27.169Z,0
2018-10-18T00:16:36.991Z,0
2018-10-18T00:17:47.129Z,0
2018-10-18T00:18:57.187Z,0
2018-10-18T00:20:07.567Z,0
2018-10-18T00:21:17.668Z,0
2018-10-18T00:22:27.543Z,0
2018-10-18T00:23:37.647Z,0
2018-10-18T00:24:47.798Z,0
2018-10-18T00:25:57.662Z,0
2018-10-18T00:27:07.807Z,0
2018-10-18T00:28:17.889Z,0
2018-10-18T00:29:27.726Z,0
2018-10-18T00:30:37.884Z,0
2018-10-18T00:31:48.077Z,0
2018-10-18T00:32:58.165Z,0
2018-10-18T00:34:08.464Z,0
2018-10-18T00:35:19.110Z,0
2018-10-18T00:36:30.107Z,0
2018-10-18T00:37:40.185Z,0
2018-10-18T00:38:50.540Z,0
2018-10-18T00:40:01.421Z,0
2018-10-18T00:41:11.571Z,0
2018-10-18T00:42:22.476Z,0
2018-10-18T00:43:32.285Z,0
2018-10-18T00:44:42.390Z,0
2018-10-18T00:45:52.499Z,0
2018-10-18T00:47:05.311Z,0
2018-10-18T00:48:16.242Z,0
2018-10-18T00:49:26.398Z,0
2018-10-18T00:50:36.232Z,0
2018-10-18T00:51:46.520Z,0
2018-10-18T00:52:57.120Z,0
2018-10-18T00:54:07.552Z,0
2018-10-18T00:55:18.061Z,0
2018-10-18T00:56:28.396Z,0
2018-10-18T00:57:38.239Z,0
2018-10-18T00:58:48.767Z,0
2018-10-18T00:59:58.980Z,0
2018-10-18T01:01:10.650Z,0
2018-10-18T01:02:21.471Z,0
2018-10-18T01:03:31.781Z,0
2018-10-18T01:04:42.201Z,0
2018-10-18T01:05:51.737Z,0
2018-10-18T01:07:02.125Z,0
2018-10-18T01:08:12.725Z,0
2018-10-18T01:09:22.334Z,0
2018-10-18T01:10:32.442Z,0
2018-10-18T01:11:43.077Z,0
2018-10-18T01:12:53.641Z,0
2018-10-18T01:14:04.321Z,0
2018-10-18T01:15:15.079Z,0
2018-10-18T01:16:25.750Z,0
2018-10-18T01:17:35.823Z,0
2018-10-18T01:18:46.148Z,0
2018-10-18T01:19:56.389Z,0
2018-10-18T01:21:07.458Z,0
2018-10-18T01:22:17.836Z,0
2018-10-18T01:23:28.130Z,0
2018-10-18T01:24:37.975Z,0
2018-10-18T01:25:48.079Z,0
2018-10-18T01:26:58.393Z,0
2018-10-18T01:28:09.347Z,0
2018-10-18T01:29:18.933Z,0
2018-10-18T01:30:29.473Z,0
2018-10-18T01:31:40.082Z,0
2018-10-18T01:32:50.355Z,0
2018-10-18T01:34:00.594Z,0
2018-10-18T01:35:11.144Z,0
2018-10-18T01:36:21.839Z,0
2018-10-18T01:37:32.135Z,0
2018-10-18T01:38:42.799Z,0
2018-10-18T01:39:52.758Z,0
2018-10-18T01:41:02.795Z,0
2018-10-18T01:42:13.275Z,0
2018-10-18T01:43:23.673Z,0
2018-10-18T01:44:33.763Z,0
2018-10-18T01:45:43.863Z,0
2018-10-18T01:46:53.956Z,0
2018-10-18T01:48:04.630Z,0
2018-10-18T01:49:15.111Z,0
2018-10-18T01:50:25.135Z,0
2018-10-18T01:51:35.212Z,0
2018-10-18T01:52:45.795Z,0
2018-10-18T01:53:56.161Z,0
2018-10-18T01:55:06.557Z,0
2018-10-18T01:56:17.060Z,0
2018-10-18T01:57:27.713Z,0
2018-10-18T01:58:37.846Z,0
2018-10-18T01:59:47.914Z,0
2018-10-18T02:00:58.040Z,0
2018-10-18T02:02:08.558Z,0
2018-10-18T02:03:18.905Z,0
2018-10-18T02:04:28.988Z,0
2018-10-18T02:05:39.101Z,0
2018-10-18T02:06:49.206Z,0
2018-10-18T02:07:59.363Z,0
2018-10-18T02:09:09.863Z,0
2018-10-18T02:10:19.669Z,0
2018-10-18T02:11:29.762Z,0
2018-10-18T02:12:40.567Z,0
2018-10-18T02:13:51.204Z,0
2018-10-18T02:15:01.322Z,0
2018-10-18T02:16:11.594Z,0
2018-10-18T02:17:21.911Z,0
2018-10-18T02:18:32.022Z,0
2018-10-18T02:19:42.816Z,0
2018-10-18T02:21:08.549Z,0
2018-10-18T02:22:18.935Z,0
2018-10-18T02:23:28.931Z,0
2018-10-18T02:24:39.660Z,0
2018-10-18T02:25:50.187Z,0
2018-10-18T02:27:02.960Z,0
2018-10-18T02:28:12.937Z,0
2018-10-18T02:29:22.748Z,0
2018-10-18T02:30:32.853Z,0
2018-10-18T02:31:43.598Z,0
2018-10-18T02:32:53.911Z,0
2018-10-18T02:34:03.730Z,0
2018-10-18T02:35:14.041Z,0
2018-10-18T02:36:24.886Z,0
2018-10-18T02:37:35.022Z,0
2018-10-18T02:38:45.345Z,0
2018-10-18T02:39:55.672Z,0
2018-10-18T02:41:06.004Z,0
2018-10-18T02:42:16.805Z,0
2018-10-18T02:43:27.070Z,0
2018-10-18T02:44:37.353Z,0
2018-10-18T02:45:47.941Z,0
2018-10-18T02:46:58.441Z,0
2018-10-18T02:48:10.959Z,0
2018-10-18T02:49:21.543Z,0
2018-10-18T02:50:32.207Z,0
2018-10-18T02:51:42.717Z,0
2018-10-18T02:52:52.797Z,0
2018-10-18T02:54:03.405Z,0
2018-10-18T02:55:13.782Z,0
2018-10-18T02:56:23.951Z,0
2018-10-18T02:57:34.887Z,0
2018-10-18T02:58:45.127Z,0
2018-10-18T02:59:55.345Z,0
2018-10-18T03:01:05.447Z,0
2018-10-18T03:02:15.602Z,0
2018-10-18T03:34:54.990Z,0
2018-10-18T03:36:06.928Z,0
2018-10-18T03:37:17.265Z,0
2018-10-18T03:38:27.396Z,0
2018-10-18T03:39:37.854Z,0
2018-10-18T03:40:47.933Z,0
2018-10-18T03:41:58.358Z,0
2018-10-18T03:43:08.991Z,0
2018-10-18T03:44:19.098Z,0
2018-10-18T03:45:29.363Z,0
2018-10-18T03:46:39.494Z,0
2018-10-18T03:47:49.803Z,0
2018-10-18T03:48:59.884Z,0
2018-10-18T03:50:10.412Z,0
2018-10-18T03:51:20.730Z,0
2018-10-18T03:52:30.534Z,0
2018-10-18T03:53:40.605Z,0
2018-10-18T03:54:51.110Z,0
2018-10-18T03:56:01.226Z,0
2018-10-18T03:57:11.287Z,0
2018-10-18T03:58:21.412Z,0
2018-10-18T03:59:31.935Z,0
2018-10-18T04:00:42.568Z,0
2018-10-18T04:01:52.638Z,0
2018-10-18T04:03:04.092Z,0
2018-10-18T04:04:14.217Z,0
2018-10-18T04:05:24.289Z,0
2018-10-18T04:06:34.141Z,0
2018-10-18T04:07:44.700Z,0
2018-10-18T04:08:55.026Z,0
2018-10-18T04:10:05.343Z,0
2018-10-18T04:11:15.428Z,0
2018-10-18T04:12:26.580Z,0
2018-10-18T04:13:37.228Z,0
2018-10-18T04:14:47.566Z,0
2018-10-18T04:15:57.654Z,0
2018-10-18T04:17:07.491Z,0
2018-10-18T04:18:18.137Z,0
2018-10-18T04:19:27.988Z,0
2018-10-18T04:20:38.057Z,0
2018-10-18T04:21:48.379Z,0
2018-10-18T04:22:57.920Z,0
2018-10-18T04:24:08.546Z,0
2018-10-18T04:25:18.826Z,0
2018-10-18T04:26:28.674Z,0
2018-10-18T04:27:38.986Z,0
2018-10-18T04:28:49.133Z,0
2018-10-18T04:29:59.593Z,0
2018-10-18T04:31:09.929Z,0
2018-10-18T04:32:20.202Z,0
2018-10-18T04:33:30.521Z,0
2018-10-18T04:34:40.776Z,0
2018-10-18T04:35:51.100Z,0
2018-10-18T04:37:02.916Z,0
2018-10-18T04:38:13.030Z,0
2018-10-18T04:39:23.394Z,0
2018-10-18T04:40:33.481Z,0
2018-10-18T04:41:43.780Z,0
2018-10-18T04:42:54.471Z,0
2018-10-18T04:44:04.790Z,0
2018-10-18T04:45:14.911Z,0
2018-10-18T04:46:25.473Z,0
2018-10-18T04:47:35.537Z,0
2018-10-18T04:48:46.522Z,0
2018-10-18T04:49:56.802Z,0
2018-10-18T04:51:07.640Z,0
2018-10-18T04:52:17.714Z,0
2018-10-18T04:53:28.041Z,4
2018-10-18T04:54:38.135Z,4
2018-10-18T04:55:47.962Z,0
2018-10-18T04:56:58.723Z,4
2018-10-18T04:58:09.258Z,4
2018-10-18T04:59:19.780Z,4
2018-10-18T05:00:30.056Z,8
2018-10-18T05:01:40.529Z,8
2018-10-18T05:02:50.384Z,8
2018-10-18T05:04:00.331Z,8
2018-10-18T05:05:10.173Z,12
2018-10-18T05:06:20.433Z,16
2018-10-18T05:07:31.204Z,20
2018-10-18T05:08:41.600Z,24
2018-10-18T05:09:51.728Z,24
2018-10-18T05:11:01.544Z,32
2018-10-18T05:12:11.844Z,40
2018-10-18T05:13:22.492Z,44
2018-10-18T05:14:32.817Z,52
2018-10-18T05:15:43.223Z,56
2018-10-18T05:16:53.287Z,68
2018-10-18T05:18:04.727Z,72
2018-10-18T05:19:15.590Z,88
2018-10-18T05:20:26.043Z,96
2018-10-18T05:21:36.432Z,104
2018-10-18T05:22:46.958Z,112
2018-10-18T05:23:57.182Z,124
2018-10-18T05:25:07.613Z,136
2018-10-18T05:26:17.814Z,144
2018-10-18T05:27:28.574Z,156
2018-10-18T05:28:39.006Z,172
2018-10-18T05:29:49.422Z,184
2018-10-18T05:30:59.953Z,196
2018-10-18T05:32:10.668Z,212
2018-10-18T05:33:21.063Z,228
2018-10-18T05:34:31.949Z,244
2018-10-18T05:35:42.250Z,260
2018-10-18T05:36:52.675Z,272
2018-10-18T05:38:03.011Z,284
2018-10-18T05:39:13.153Z,304
2018-10-18T05:40:23.684Z,312
2018-10-18T05:41:34.148Z,328
2018-10-18T05:42:44.246Z,340
2018-10-18T05:43:54.541Z,352
2018-10-18T05:45:04.674Z,364
2018-10-18T05:46:14.976Z,372
2018-10-18T05:47:25.190Z,384
2018-10-18T05:48:35.820Z,404
2018-10-18T05:49:46.129Z,416
2018-10-18T05:50:56.428Z,432
2018-10-18T05:52:07.412Z,444
2018-10-18T05:53:18.745Z,464
2018-10-18T05:54:29.055Z,480
2018-10-18T05:55:39.588Z,496
2018-10-18T05:56:49.834Z,512
2018-10-18T05:58:00.143Z,528
2018-10-18T05:59:10.855Z,544
2018-10-18T06:00:22.012Z,552
2018-10-18T06:01:32.772Z,564
2018-10-18T06:02:43.071Z,580
2018-10-18T06:03:53.148Z,592
2018-10-18T06:05:03.273Z,604
2018-10-18T06:06:14.426Z,620
2018-10-18T06:07:24.992Z,632
2018-10-18T06:08:35.440Z,644
2018-10-18T06:09:46.164Z,652
2018-10-18T06:10:56.698Z,664
2018-10-18T06:12:06.784Z,676
2018-10-18T06:13:17.450Z,692
2018-10-18T06:14:27.192Z,700
2018-10-18T06:15:37.229Z,716
2018-10-18T06:16:47.485Z,724
2018-10-18T06:17:57.330Z,732
2018-10-18T06:19:07.778Z,740
2018-10-18T06:20:18.402Z,748
2018-10-18T06:21:28.469Z,756
2018-10-18T06:22:38.622Z,764
2018-10-18T06:23:48.822Z,772
2018-10-18T06:24:59.047Z,780
2018-10-18T06:26:09.302Z,792
2018-10-18T06:27:19.144Z,804
2018-10-18T06:28:28.983Z,816
2018-10-18T06:29:39.075Z,828
2018-10-18T06:30:49.147Z,844
2018-10-18T06:31:59.279Z,856
2018-10-18T06:33:09.764Z,872
2018-10-18T06:34:20.283Z,896
2018-10-18T06:35:30.121Z,924
2018-10-18T06:36:39.935Z,964
2018-10-18T06:37:49.801Z,1012
2018-10-18T06:38:59.979Z,1072
2018-10-18T06:40:10.090Z,1164
2018-10-18T06:41:20.761Z,1288
2018-10-18T06:42:30.890Z,1284
2018-10-18T06:43:41.034Z,1316
2018-10-18T06:44:51.109Z,1440
2018-10-18T06:46:01.182Z,1432
2018-10-18T06:47:12.092Z,1436
2018-10-18T06:48:22.615Z,1468
2018-10-18T06:49:33.339Z,1488
2018-10-18T06:50:43.622Z,1536
2018-10-18T06:51:53.187Z,1500
2018-10-18T06:53:03.265Z,1568
2018-10-18T06:54:13.378Z,1380
2018-10-18T06:55:23.607Z,1368
2018-10-18T06:56:33.693Z,1380
2018-10-18T06:57:43.779Z,1404
2018-10-18T06:58:53.864Z,1432
2018-10-18T07:00:04.851Z,1456
2018-10-18T07:01:15.050Z,1496
2018-10-18T07:02:25.095Z,1828
2018-10-18T07:03:35.194Z,1828
2018-10-18T07:04:45.341Z,1512
2018-10-18T07:05:55.476Z,1416
2018-10-18T07:07:05.631Z,1468
2018-10-18T07:08:15.707Z,1480
2018-10-18T07:09:26.216Z,1524
2018-10-18T07:10:36.307Z,1488
2018-10-18T07:11:46.534Z,1516
2018-10-18T07:12:56.513Z,1516
2018-10-18T07:14:06.589Z,1732
2018-10-18T07:15:16.387Z,1612
2018-10-18T07:16:26.458Z,1656
2018-10-18T07:17:36.146Z,1644
2018-10-18T07:18:46.443Z,1652
2018-10-18T07:19:56.318Z,1676
2018-10-18T07:21:07.385Z,1704
2018-10-18T07:22:17.491Z,1668
2018-10-18T07:23:27.587Z,1608
2018-10-18T07:24:37.731Z,1576
2018-10-18T07:25:47.963Z,1540
2018-10-18T07:26:58.035Z,1540
2018-10-18T07:28:10.077Z,1540
2018-10-18T07:29:20.287Z,1548
2018-10-18T07:30:30.089Z,1564
2018-10-18T07:31:40.163Z,1568
2018-10-18T07:32:50.225Z,1556
2018-10-18T07:34:00.349Z,1532
2018-10-18T07:35:10.390Z,1508
2018-10-18T07:36:20.852Z,1496
2018-10-18T07:37:30.734Z,1488
2018-10-18T07:38:40.827Z,1468
2018-10-18T07:39:50.640Z,1460
2018-10-18T07:41:00.845Z,1472
2018-10-18T07:42:11.026Z,1492
2018-10-18T07:43:21.043Z,1504
2018-10-18T07:44:31.141Z,1508
2018-10-18T07:45:41.247Z,1500
2018-10-18T07:46:51.724Z,1536
2018-10-18T07:48:02.283Z,1464
2018-10-18T07:49:12.915Z,1456
2018-10-18T07:50:23.049Z,1448
2018-10-18T07:51:33.139Z,1464
2018-10-18T07:52:43.222Z,1476
2018-10-18T07:53:53.181Z,1544
2018-10-18T07:55:04.634Z,1616
2018-10-18T07:56:14.730Z,1684
2018-10-18T07:57:24.566Z,1760
2018-10-18T07:58:34.647Z,1688
2018-10-18T07:59:44.823Z,1672
2018-10-18T08:00:55.720Z,1656
2018-10-18T08:02:06.058Z,1648
2018-10-18T08:03:16.135Z,1652
2018-10-18T08:04:26.228Z,1668
2018-10-18T08:05:36.368Z,1700
2018-10-18T08:06:46.470Z,1744
2018-10-18T08:07:56.331Z,1808
2018-10-18T08:09:08.152Z,1888
2018-10-18T08:10:18.275Z,1980
2018-10-18T08:11:28.160Z,2056
2018-10-18T08:12:38.244Z,2108
2018-10-18T08:13:48.358Z,2148
2018-10-18T08:14:58.454Z,2160
2018-10-18T08:16:08.268Z,2160
2018-10-18T08:17:18.544Z,2180
2018-10-18T08:18:28.461Z,2204
2018-10-18T08:19:38.557Z,2220
2018-10-18T08:20:48.371Z,2232
2018-10-18T08:21:58.453Z,2252
2018-10-18T08:23:08.581Z,2276
2018-10-18T08:24:18.905Z,2292
2018-10-18T08:25:29.036Z,2264
2018-10-18T08:26:38.863Z,2240
2018-10-18T08:27:48.971Z,2236
2018-10-18T08:28:59.127Z,2328
2018-10-18T08:30:10.062Z,3196
2018-10-18T08:31:20.855Z,2732
2018-10-18T08:32:31.357Z,2408
2018-10-18T08:33:41.441Z,2292
2018-10-18T08:34:51.577Z,2240
2018-10-18T08:36:01.658Z,2260
2018-10-18T08:37:12.023Z,2244
2018-10-18T08:38:22.755Z,2336
2018-10-18T08:39:32.833Z,2552
2018-10-18T08:40:43.017Z,3632
2018-10-18T08:41:53.092Z,4268
2018-10-18T08:43:03.350Z,4404
2018-10-18T08:44:13.969Z,4368
2018-10-18T08:45:24.103Z,4396
2018-10-18T08:46:34.175Z,4592
2018-10-18T08:47:44.065Z,4364
2018-10-18T08:48:54.253Z,4276
2018-10-18T08:50:04.983Z,3616
2018-10-18T08:51:14.416Z,3664
2018-10-18T08:52:28.974Z,4384
2018-10-18T08:53:38.842Z,4216
2018-10-18T08:54:54.690Z,3844
2018-10-18T08:56:04.568Z,4476
2018-10-18T08:57:14.450Z,4700
2018-10-18T08:58:24.585Z,4632
2018-10-18T08:59:34.560Z,3964
2018-10-18T09:00:44.650Z,3444
2018-10-18T09:01:54.733Z,3268
2018-10-18T09:03:04.568Z,3556
2018-10-18T09:04:14.136Z,4064
2018-10-18T09:05:24.231Z,3880
2018-10-18T09:06:34.051Z,4072
2018-10-18T09:07:44.381Z,4056
2018-10-18T09:08:54.538Z,4156
2018-10-18T09:10:05.958Z,4404
2018-10-18T09:11:16.014Z,4492
2018-10-18T09:12:26.097Z,4544
2018-10-18T09:13:36.198Z,4560
2018-10-18T09:14:46.332Z,4564
2018-10-18T09:15:56.348Z,4584
2018-10-18T09:17:07.469Z,4536
2018-10-18T09:18:17.554Z,4592
2018-10-18T09:19:27.385Z,4600
2018-10-18T09:20:37.472Z,4228
2018-10-18T09:21:47.569Z,3564
2018-10-18T09:22:57.650Z,3040
2018-10-18T09:24:08.397Z,3272
2018-10-18T09:25:18.775Z,2612
2018-10-18T09:26:28.982Z,2420
2018-10-18T09:27:39.060Z,2360
2018-10-18T09:28:49.168Z,2408
2018-10-18T09:29:59.243Z,2684
2018-10-18T09:31:09.862Z,3148
2018-10-18T09:32:19.987Z,3048
2018-10-18T09:33:30.054Z,3164
2018-10-18T09:34:39.833Z,3044
2018-10-18T09:35:50.333Z,3036
2018-10-18T09:37:00.622Z,3124
2018-10-18T09:38:10.585Z,3160
2018-10-18T09:39:20.447Z,4080
2018-10-18T09:40:30.555Z,4172
2018-10-18T09:41:40.369Z,4552
2018-10-18T09:42:50.488Z,4632
2018-10-18T09:44:00.604Z,4808
2018-10-18T09:45:10.875Z,4952
2018-10-18T09:46:20.951Z,4984
2018-10-18T09:47:31.048Z,5020
2018-10-18T09:48:40.867Z,5008
2018-10-18T09:49:51.021Z,5028
2018-10-18T09:51:01.100Z,5048
2018-10-18T09:52:10.933Z,5060
2018-10-18T09:53:21.036Z,5048
2018-10-18T09:54:31.108Z,5036
2018-10-18T09:55:41.667Z,5024
2018-10-18T09:56:51.963Z,5040
2018-10-18T09:58:03.361Z,5032
2018-10-18T09:59:13.458Z,5040
2018-10-18T10:00:23.771Z,5044
2018-10-18T10:01:33.908Z,4856
2018-10-18T10:02:43.746Z,4500
2018-10-18T10:03:53.579Z,4232
2018-10-18T10:05:03.406Z,4148
2018-10-18T10:06:13.250Z,3416
2018-10-18T10:07:23.766Z,3536
2018-10-18T10:08:33.876Z,3988
2018-10-18T10:09:43.966Z,4484
2018-10-18T10:10:53.792Z,4168
2018-10-18T10:12:04.091Z,4728
2018-10-18T10:13:14.998Z,5076
2018-10-18T10:14:25.339Z,5184
2018-10-18T10:15:35.462Z,5188
2018-10-18T10:16:45.552Z,5136
2018-10-18T10:17:55.991Z,5128
2018-10-18T10:19:07.315Z,5144
2018-10-18T10:20:17.676Z,5108
2018-10-18T10:21:27.512Z,5108
2018-10-18T10:22:37.607Z,5108
2018-10-18T10:23:47.693Z,5124
2018-10-18T10:24:57.904Z,5136
2018-10-18T10:26:08.583Z,5136
2018-10-18T10:27:18.646Z,5120
2018-10-18T10:28:28.487Z,5132
2018-10-18T10:29:38.585Z,5120
2018-10-18T10:30:48.687Z,5108
2018-10-18T10:31:58.526Z,5056
2018-10-18T10:33:09.332Z,4948
2018-10-18T10:34:19.197Z,5036
2018-10-18T10:35:29.269Z,5044
2018-10-18T10:36:39.566Z,5080
2018-10-18T10:37:49.655Z,5056
2018-10-18T10:38:59.861Z,5056
2018-10-18T10:40:11.183Z,5048
2018-10-18T10:41:22.653Z,5028
2018-10-18T10:42:34.214Z,5064
2018-10-18T10:43:44.328Z,5096
2018-10-18T10:44:54.991Z,5104
2018-10-18T10:46:05.143Z,5120
2018-10-18T10:47:15.460Z,5140
2018-10-18T10:48:26.029Z,5136
2018-10-18T10:49:36.226Z,5140
2018-10-18T10:50:46.313Z,5144
2018-10-18T10:51:56.195Z,5104
2018-10-18T10:53:05.804Z,5136
2018-10-18T10:54:16.768Z,5148
2018-10-18T10:55:27.025Z,5216
2018-10-18T10:56:37.108Z,5204
2018-10-18T10:57:47.272Z,5192
2018-10-18T10:58:57.689Z,5184
2018-10-18T11:00:08.272Z,5188
2018-10-18T11:01:18.625Z,5184
2018-10-18T11:02:28.785Z,5192
2018-10-18T11:03:39.373Z,5204
2018-10-18T11:04:49.447Z,5196
2018-10-18T11:05:59.666Z,5208
2018-10-18T11:07:10.937Z,5228
2018-10-18T11:08:21.556Z,5224
2018-10-18T11:09:32.414Z,5284
2018-10-18T11:10:42.376Z,5364
2018-10-18T11:11:52.805Z,5384
2018-10-18T11:13:02.730Z,5388
2018-10-18T11:14:13.336Z,5368
2018-10-18T11:15:23.709Z,5368
2018-10-18T11:16:36.174Z,5412
2018-10-18T11:17:50.068Z,5420
2018-10-18T11:19:02.765Z,5440
2018-10-18T11:20:14.838Z,5472
2018-10-18T11:21:26.241Z,5512
2018-10-18T11:22:36.439Z,5488
2018-10-18T11:23:46.286Z,5448
2018-10-18T11:24:57.145Z,4932
2018-10-18T11:26:08.171Z,4288
2018-10-18T11:27:18.644Z,4124
2018-10-18T11:28:28.495Z,5100
2018-10-18T11:29:38.598Z,4588
2018-10-18T11:30:49.020Z,4864
2018-10-18T11:31:58.629Z,4636
2018-10-18T11:33:11.553Z,5088
2018-10-18T11:34:22.037Z,5200
2018-10-18T11:35:32.217Z,5200
2018-10-18T11:36:42.359Z,5216
2018-10-18T11:37:52.463Z,5188
2018-10-18T11:39:03.492Z,5220
2018-10-18T11:40:13.569Z,5180
2018-10-18T11:41:23.417Z,5176
2018-10-18T11:42:33.708Z,5104
2018-10-18T11:43:43.972Z,5096
2018-10-18T11:44:53.783Z,5096
2018-10-18T11:46:05.170Z,5064
2018-10-18T11:47:15.260Z,5016
2018-10-18T11:48:25.496Z,5152
2018-10-18T11:49:35.580Z,5248
2018-10-18T11:50:45.773Z,5232
2018-10-18T11:51:55.682Z,5256
2018-10-18T11:53:05.582Z,5328
2018-10-18T11:54:16.584Z,5348
2018-10-18T11:55:26.757Z,5368
2018-10-18T11:56:36.842Z,5416
2018-10-18T11:57:46.672Z,5432
2018-10-18T11:58:56.839Z,5424
2018-10-18T12:00:06.764Z,5400
2018-10-18T12:01:17.331Z,5392
2018-10-18T12:02:28.008Z,5344
2018-10-18T12:03:38.188Z,5256
2018-10-18T12:04:48.284Z,5240
2018-10-18T12:05:58.383Z,5280
2018-10-18T12:07:08.491Z,5280
2018-10-18T12:08:19.062Z,5268
2018-10-18T12:09:29.193Z,5272
2018-10-18T12:10:39.276Z,5328
2018-10-18T12:11:49.409Z,5268
2018-10-18T12:12:59.484Z,5248
2018-10-18T12:14:09.418Z,5212
2018-10-18T12:15:19.768Z,5232
2018-10-18T12:16:30.084Z,5208
2018-10-18T12:17:40.254Z,5216
2018-10-18T12:18:50.388Z,4768
2018-10-18T12:20:00.625Z,4980
2018-10-18T12:21:10.626Z,5276
2018-10-18T12:22:20.737Z,5108
2018-10-18T12:23:30.848Z,4276
2018-10-18T12:24:40.955Z,5228
2018-10-18T12:25:50.796Z,5276
2018-10-18T12:27:01.612Z,5260
2018-10-18T12:28:11.962Z,5272
2018-10-18T12:29:22.924Z,5180
2018-10-18T12:30:33.064Z,5204
2018-10-18T12:31:42.887Z,5176
2018-10-18T12:32:53.027Z,5128
2018-10-18T12:34:03.759Z,5108
2018-10-18T12:35:14.324Z,5084
2018-10-18T12:36:24.001Z,5056
2018-10-18T12:37:34.108Z,5000
2018-10-18T12:38:44.190Z,5020
2018-10-18T12:39:54.018Z,4920
2018-10-18T12:41:05.221Z,4924
2018-10-18T12:42:15.533Z,4820
2018-10-18T12:43:25.742Z,4860
2018-10-18T12:44:35.641Z,4864
2018-10-18T12:45:45.731Z,4836
2018-10-18T12:46:55.609Z,4784
2018-10-18T12:48:07.670Z,4716
2018-10-18T12:49:18.106Z,4632
2018-10-18T12:50:28.281Z,4612
2018-10-18T12:51:38.390Z,4596
2018-10-18T12:52:48.258Z,3964
2018-10-18T12:53:58.433Z,3876
2018-10-18T12:55:08.660Z,3724
2018-10-18T12:56:19.214Z,4308
2018-10-18T12:57:29.511Z,4356
2018-10-18T12:58:39.614Z,4372
2018-10-18T12:59:49.435Z,4336
2018-10-18T13:00:59.561Z,4232
2018-10-18T13:02:10.116Z,3788
2018-10-18T13:03:20.562Z,3520
2018-10-18T13:04:30.720Z,3380
2018-10-18T13:05:40.816Z,3908
2018-10-18T13:06:50.664Z,4048
2018-10-18T13:08:01.929Z,4040
2018-10-18T13:09:12.001Z,4048
2018-10-18T13:10:22.119Z,4060
2018-10-18T13:11:31.951Z,4040
2018-10-18T13:12:42.869Z,3956
2018-10-18T13:13:53.308Z,3784
2018-10-18T13:15:03.437Z,3732
2018-10-18T13:16:13.531Z,3880
2018-10-18T13:17:23.633Z,3904
2018-10-18T13:18:33.754Z,3912
2018-10-18T13:19:43.826Z,3948
2018-10-18T13:20:53.960Z,3892
2018-10-18T13:22:03.792Z,3876
2018-10-18T13:23:13.858Z,3768
2018-10-18T13:24:23.795Z,3220
2018-10-18T13:25:34.279Z,2716
2018-10-18T13:26:44.408Z,2576
2018-10-18T13:27:54.499Z,2460
2018-10-18T13:29:05.335Z,2376
2018-10-18T13:30:15.995Z,2328
2018-10-18T13:31:26.124Z,2296
2018-10-18T13:32:36.267Z,2296
2018-10-18T13:33:46.102Z,2272
2018-10-18T13:34:56.191Z,2260
2018-10-18T13:36:06.658Z,2248
2018-10-18T13:37:16.909Z,2232
2018-10-18T13:38:26.734Z,2224
2018-10-18T13:39:36.554Z,2256
2018-10-18T13:40:47.048Z,2176
2018-10-18T13:41:57.469Z,2168
2018-10-18T13:43:07.698Z,2048
2018-10-18T13:44:18.450Z,2004
2018-10-18T13:45:28.343Z,1996
2018-10-18T13:46:38.892Z,2016
2018-10-18T13:47:48.995Z,2032
2018-10-18T13:48:59.073Z,2052
2018-10-18T13:50:10.609Z,2048
2018-10-18T13:51:20.519Z,2048
2018-10-18T13:52:30.614Z,2068
2018-10-18T13:53:40.700Z,2096
2018-10-18T13:54:50.539Z,2152
2018-10-18T13:56:01.055Z,2128
2018-10-18T13:57:11.017Z,2208
2018-10-18T13:58:21.346Z,2212
2018-10-18T13:59:32.486Z,2604
2018-10-18T14:00:43.030Z,2972
2018-10-18T14:01:53.225Z,3016
2018-10-18T14:03:03.316Z,3064
2018-10-18T14:04:13.409Z,3088
2018-10-18T14:05:23.576Z,3064
2018-10-18T14:06:33.750Z,3052
2018-10-18T14:07:43.963Z,3004
2018-10-18T14:08:54.239Z,2944
2018-10-18T14:10:04.330Z,2724
2018-10-18T14:11:14.552Z,2608
2018-10-18T14:12:24.822Z,2536
2018-10-18T14:13:34.391Z,2572
2018-10-18T14:14:44.479Z,2652
2018-10-18T14:15:54.315Z,2712
2018-10-18T14:17:04.817Z,2588
2018-10-18T14:18:15.220Z,2352
2018-10-18T14:19:25.086Z,2404
2018-10-18T14:20:35.171Z,2224
2018-10-18T14:21:45.273Z,2516
2018-10-18T14:22:55.635Z,2548
2018-10-18T14:24:05.808Z,2496
2018-10-18T14:25:15.923Z,2432
2018-10-18T14:26:25.860Z,2460
2018-10-18T14:27:35.414Z,2476
2018-10-18T14:28:45.509Z,2460
2018-10-18T14:29:55.615Z,2444
2018-10-18T14:31:06.159Z,2440
2018-10-18T14:32:16.840Z,2432
2018-10-18T14:33:27.232Z,2404
2018-10-18T14:34:37.334Z,2352
2018-10-18T14:35:47.435Z,2292
2018-10-18T14:36:57.318Z,2244
2018-10-18T14:38:07.788Z,2196
2018-10-18T14:39:18.235Z,2144
2018-10-18T14:40:28.331Z,2080
2018-10-18T14:41:38.397Z,2028
2018-10-18T14:42:48.503Z,1988
2018-10-18T14:43:59.097Z,1968
2018-10-18T14:45:09.682Z,1932
2018-10-18T14:46:20.119Z,1896
2018-10-18T14:47:31.215Z,1836
2018-10-18T14:48:41.154Z,1788
2018-10-18T14:49:51.038Z,1720
2018-10-18T14:51:01.211Z,1672
2018-10-18T14:52:11.669Z,1616
2018-10-18T14:53:22.243Z,1560
2018-10-18T14:54:32.437Z,1548
2018-10-18T14:55:42.266Z,1512
2018-10-18T14:56:52.348Z,1476
2018-10-18T14:58:02.444Z,1448
2018-10-18T14:59:13.115Z,1400
2018-10-18T15:00:23.165Z,1360
2018-10-18T15:01:32.997Z,1332
2018-10-18T15:02:43.080Z,1316
2018-10-18T15:03:52.968Z,1280
2018-10-18T15:05:04.741Z,1236
2018-10-18T15:06:15.096Z,1208
2018-10-18T15:07:24.955Z,1172
2018-10-18T15:08:34.803Z,1128
2018-10-18T15:09:44.892Z,1100
2018-10-18T15:10:55.039Z,1068
2018-10-18T15:12:06.150Z,1028
2018-10-18T15:13:16.016Z,1000
2018-10-18T15:14:26.111Z,972
2018-10-18T15:15:36.242Z,912
2018-10-18T15:16:46.228Z,892
2018-10-18T15:17:57.000Z,872
2018-10-18T15:19:06.876Z,844
2018-10-18T15:20:17.097Z,836
2018-10-18T15:21:27.006Z,816
2018-10-18T15:22:37.106Z,780
2018-10-18T15:23:47.258Z,760
2018-10-18T15:24:57.331Z,744
2018-10-18T15:26:07.829Z,728
2018-10-18T15:27:18.564Z,700
2018-10-18T15:28:28.428Z,672
2018-10-18T15:29:38.539Z,644
2018-10-18T15:30:48.633Z,616
2018-10-18T15:31:59.266Z,584
2018-10-18T15:33:10.190Z,560
2018-10-18T15:34:20.624Z,532
2018-10-18T15:35:30.782Z,504
2018-10-18T15:36:40.934Z,472
2018-10-18T15:37:51.010Z,444
2018-10-18T15:39:02.346Z,412
2018-10-18T15:40:12.732Z,384
2018-10-18T15:41:23.070Z,364
2018-10-18T15:42:33.186Z,336
2018-10-18T15:43:43.280Z,320
2018-10-18T15:44:53.436Z,296
2018-10-18T15:46:04.206Z,276
2018-10-18T15:47:14.727Z,252
2018-10-18T15:48:25.235Z,240
2018-10-18T15:49:35.057Z,216
2018-10-18T15:50:44.874Z,196
2018-10-18T15:51:54.731Z,176
2018-10-18T15:53:04.863Z,164
2018-10-18T15:54:15.803Z,148
2018-10-18T15:55:26.289Z,132
2018-10-18T15:56:36.368Z,120
2018-10-18T15:57:46.467Z,112
2018-10-18T15:58:56.636Z,96
2018-10-18T16:00:07.118Z,88
2018-10-18T16:01:17.057Z,76
2018-10-18T16:02:26.868Z,68
2018-10-18T16:03:36.973Z,56
2018-10-18T16:04:46.559Z,52
2018-10-18T16:05:56.391Z,44
2018-10-18T16:07:06.583Z,36
2018-10-18T16:08:16.663Z,32
2018-10-18T16:09:26.756Z,28
2018-10-18T16:10:36.860Z,24
2018-10-18T16:11:46.934Z,20
2018-10-18T16:12:57.016Z,12
2018-10-18T16:14:07.305Z,12
2018-10-18T16:15:17.235Z,8
2018-10-18T16:16:27.347Z,8
2018-10-18T16:17:37.569Z,8
2018-10-18T16:18:47.985Z,8
2018-10-18T16:19:58.217Z,4
2018-10-18T16:21:08.431Z,4
2018-10-18T16:22:18.504Z,4
2018-10-18T16:23:28.364Z,4
2018-10-18T16:24:38.444Z,0
2018-10-18T16:25:48.652Z,0
2018-10-18T16:26:58.918Z,0
2018-10-18T16:28:10.379Z,4
2018-10-18T16:29:21.080Z,4
2018-10-18T16:30:31.268Z,0
2018-10-18T16:31:41.341Z,0
2018-10-18T16:32:51.189Z,0
2018-10-18T16:34:02.378Z,0
2018-10-18T16:35:12.633Z,0
2018-10-18T16:36:22.926Z,0
2018-10-18T16:37:33.059Z,0
2018-10-18T16:38:43.152Z,0
2018-10-18T16:39:52.995Z,0
2018-10-18T16:41:04.006Z,0
2018-10-18T16:42:14.321Z,0
2018-10-18T16:43:24.498Z,0